createdAt,value
2022-08-18T00:02:07.447Z,99565.25
2022-08-18T00:04:46.030Z,99562.38
2022-08-18T00:07:19.607Z,99554.00
2022-08-18T00:09:47.831Z,99547.44
2022-08-18T00:12:24.806Z,99547.94
2022-08-18T00:14:53.431Z,99543.44
2022-08-18T00:17:21.988Z,99542.28
2022-08-18T00:19:50.412Z,99538.72
2022-08-18T00:22:20.631Z,99538.94
2022-08-18T00:24:51.298Z,99538.59
2022-08-18T00:27:31.029Z,99544.94
2022-08-18T00:30:01.532Z,99536.97
2022-08-18T00:32:35.920Z,99542.84
2022-08-18T00:35:28.881Z,99541.25
2022-08-18T00:37:59.587Z,99542.25
2022-08-18T00:40:37.222Z,99549.50
2022-08-18T00:43:13.000Z,99548.56
2022-08-18T00:45:45.286Z,99543.50
2022-08-18T00:48:14.267Z,99534.50
2022-08-18T00:50:54.266Z,99543.63
2022-08-18T00:53:35.523Z,99544.88
2022-08-18T00:56:20.562Z,99549.72
2022-08-18T00:58:55.591Z,99551.56
2022-08-18T01:01:26.198Z,99553.19
2022-08-18T01:04:03.065Z,99563.31
2022-08-18T01:06:40.977Z,99551.31
2022-08-18T01:09:09.647Z,99551.66
2022-08-18T01:11:38.853Z,99553.63
2022-08-18T01:14:09.953Z,99556.84
2022-08-18T01:16:57.572Z,99556.03
2022-08-18T01:19:44.988Z,99562.72
2022-08-18T01:22:20.204Z,99568.13
2022-08-18T01:25:05.771Z,99570.22
2022-08-18T01:27:34.029Z,99571.97
2022-08-18T01:30:10.330Z,99573.56
2022-08-18T01:32:41.302Z,99565.75
2022-08-18T01:35:12.827Z,99573.44
2022-08-18T01:37:41.314Z,99572.41
2022-08-18T01:41:22.509Z,99572.28
2022-08-18T01:43:03.665Z,99572.59
2022-08-18T01:45:33.383Z,99573.87
2022-08-18T01:48:01.709Z,99577.78
2022-08-18T01:50:30.297Z,99575.50
2022-08-18T01:53:00.253Z,99581.50
2022-08-18T01:55:30.373Z,99576.44
2022-08-18T01:57:57.968Z,99578.62
2022-08-18T02:00:29.022Z,99574.72
2022-08-18T02:03:02.141Z,99578.41
2022-08-18T02:05:36.973Z,99574.25
2022-08-18T02:08:07.372Z,99580.81
2022-08-18T02:10:37.754Z,99580.34
2022-08-18T02:13:05.683Z,99577.47
2022-08-18T02:15:33.415Z,99578.44
2022-08-18T02:18:03.367Z,99575.09
2022-08-18T02:20:31.879Z,99566.97
2022-08-18T02:22:59.618Z,99574.81
2022-08-18T02:25:27.248Z,99576.41
2022-08-18T02:27:54.890Z,99567.66
2022-08-18T02:30:24.928Z,99573.75
2022-08-18T02:32:52.542Z,99583.38
2022-08-18T02:35:22.760Z,99581.75
2022-08-18T02:37:50.408Z,99575.88
2022-08-18T02:40:24.558Z,99585.12
2022-08-18T02:42:52.850Z,99579.16
2022-08-18T02:45:20.619Z,99581.56
2022-08-18T02:47:56.663Z,99582.22
2022-08-18T02:50:24.967Z,99583.38
2022-08-18T02:52:52.529Z,99587.63
2022-08-18T02:55:22.727Z,99578.97
2022-08-18T02:57:52.785Z,99588.72
2022-08-18T03:00:20.887Z,99590.59
2022-08-18T03:02:51.743Z,99585.06
2022-08-18T03:05:21.827Z,99596.25
2022-08-18T03:07:51.038Z,99594.72
2022-08-18T03:10:31.815Z,99595.84
2022-08-18T03:13:03.958Z,99595.66
2022-08-18T03:15:31.947Z,99597.63
2022-08-18T03:17:59.829Z,99596.47
2022-08-18T03:20:30.442Z,99593.38
2022-08-18T03:22:58.896Z,99605.69
2022-08-18T03:25:26.701Z,99609.88
2022-08-18T03:27:54.337Z,99607.31
2022-08-18T03:30:23.642Z,99615.88
2022-08-18T03:32:52.213Z,99620.25
2022-08-18T03:35:19.890Z,99614.72
2022-08-18T03:37:47.565Z,99623.69
2022-08-18T03:40:17.813Z,99613.78
2022-08-18T03:51:47.092Z,99604.94
2022-08-18T03:54:18.662Z,99604.59
2022-08-18T03:56:49.684Z,99606.88
2022-08-18T03:59:23.753Z,99609.19
2022-08-18T04:01:53.897Z,99610.34
2022-08-18T04:04:24.784Z,99604.34
2022-08-18T04:07:00.198Z,99604.34
2022-08-18T04:09:29.700Z,99604.69
2022-08-18T04:11:59.204Z,99599.94
2022-08-18T04:14:29.962Z,99613.78
2022-08-18T04:17:00.682Z,99619.44
2022-08-18T04:19:28.496Z,99608.97
2022-08-18T04:21:59.383Z,99619.84
2022-08-18T04:24:31.088Z,99621.03
2022-08-18T04:27:00.975Z,99618.50
2022-08-18T04:29:29.513Z,99612.63
2022-08-18T04:31:57.343Z,99614.38
2022-08-18T04:36:54.512Z,99614.41
2022-08-18T04:39:24.017Z,99618.25
2022-08-18T04:41:54.296Z,99619.97
2022-08-18T04:44:22.607Z,99611.69
2022-08-18T04:46:53.122Z,99616.44
2022-08-18T04:49:26.017Z,99623.94
2022-08-18T04:52:34.204Z,99622.56
2022-08-18T04:55:02.937Z,99625.91
2022-08-18T04:57:33.823Z,99630.97
2022-08-18T05:00:06.848Z,99624.91
2022-08-18T05:02:35.012Z,99622.66
2022-08-18T05:05:04.010Z,99627.03
2022-08-18T05:07:32.107Z,99616.69
2022-08-18T05:10:00.031Z,99607.53
2022-08-18T05:12:28.353Z,99612.13
2022-08-18T05:14:58.600Z,99610.16
2022-08-18T05:17:29.000Z,99617.06
2022-08-18T05:19:58.775Z,99609.75
2022-08-18T05:22:28.611Z,99615.44
2022-08-18T05:24:58.469Z,99614.28
2022-08-18T05:27:26.094Z,99615.91
2022-08-18T05:29:56.059Z,99621.78
2022-08-18T05:32:48.198Z,99620.97
2022-08-18T05:35:42.090Z,99612.41
2022-08-18T05:38:32.536Z,99630.88
2022-08-18T05:41:13.991Z,99640.34
2022-08-18T05:43:51.974Z,99637.44
2022-08-18T05:46:27.188Z,99632.50
2022-08-18T05:48:54.764Z,99632.12
2022-08-18T05:51:30.205Z,99635.16
2022-08-18T05:54:15.751Z,99635.13
2022-08-18T05:56:48.772Z,99640.34
2022-08-18T05:59:27.475Z,99644.38
2022-08-18T06:02:00.643Z,99629.22
2022-08-18T06:05:16.537Z,99635.69
2022-08-18T06:08:13.803Z,99639.69
2022-08-18T06:10:45.358Z,99647.06
2022-08-18T06:13:16.581Z,99644.59
2022-08-18T06:16:06.416Z,99649.16
2022-08-18T06:18:56.702Z,99650.87
2022-08-18T06:21:47.647Z,99654.72
2022-08-18T06:24:46.108Z,99658.47
2022-08-18T06:27:40.373Z,99662.97
2022-08-18T06:30:23.372Z,99662.22
2022-08-18T06:32:52.897Z,99659.06
2022-08-18T06:35:26.161Z,99654.00
2022-08-18T06:38:28.297Z,99658.19
2022-08-18T06:41:44.064Z,99656.38
2022-08-18T06:44:34.791Z,99653.09
2022-08-18T06:47:05.470Z,99658.81
2022-08-18T06:49:55.236Z,99654.22
2022-08-18T06:52:32.299Z,99660.75
2022-08-18T06:55:05.934Z,99654.09
2022-08-18T06:58:13.728Z,99656.91
2022-08-18T07:00:56.093Z,99646.06
2022-08-18T07:03:47.395Z,99641.44
2022-08-18T07:06:21.417Z,99631.19
2022-08-18T07:08:57.353Z,99636.16
2022-08-18T07:11:29.285Z,99637.44
2022-08-18T07:14:15.468Z,99633.59
2022-08-18T07:16:58.202Z,99631.09
2022-08-18T07:19:30.978Z,99630.94
2022-08-18T07:22:17.901Z,99628.69
2022-08-18T07:24:50.724Z,99634.28
2022-08-18T07:27:24.111Z,99628.34
2022-08-18T07:30:11.961Z,99630.03
2022-08-18T07:32:54.170Z,99640.16
2022-08-18T07:35:49.154Z,99641.00
2022-08-18T07:38:44.421Z,99633.00
2022-08-18T07:41:27.682Z,99634.66
2022-08-18T07:44:16.763Z,99627.47
2022-08-18T07:46:57.270Z,99629.88
2022-08-18T07:49:27.477Z,99631.81
2022-08-18T07:52:05.661Z,99633.03
2022-08-18T07:54:49.809Z,99641.84
2022-08-18T07:57:20.972Z,99640.47
2022-08-18T07:59:58.723Z,99641.81
2022-08-18T08:02:40.269Z,99646.56
2022-08-18T08:05:33.610Z,99657.28
2022-08-18T08:08:11.653Z,99649.59
2022-08-18T08:11:02.407Z,99657.63
2022-08-18T08:13:56.486Z,99661.72
2022-08-18T08:16:42.800Z,99671.16
2022-08-18T08:20:03.185Z,99671.56
2022-08-18T08:23:00.101Z,99676.13
2022-08-18T08:25:47.569Z,99670.94
2022-08-18T08:28:33.930Z,99667.22
2022-08-18T08:34:34.339Z,99685.91
2022-08-18T08:37:08.408Z,99670.56
2022-08-18T08:39:55.288Z,99675.28
2022-08-18T08:42:45.709Z,99671.50
2022-08-18T08:45:21.679Z,99669.59
2022-08-18T08:48:21.126Z,99663.28
2022-08-18T08:50:59.215Z,99663.00
2022-08-18T08:53:35.887Z,99656.63
2022-08-18T08:56:14.542Z,99656.16
2022-08-18T08:59:00.205Z,99648.81
2022-08-18T09:01:34.152Z,99654.19
2022-08-18T09:04:11.827Z,99648.38
2022-08-18T09:06:57.946Z,99646.62
2022-08-18T09:09:34.580Z,99642.09
2022-08-18T09:12:33.965Z,99641.41
2022-08-18T09:15:22.764Z,99644.34
2022-08-18T09:18:00.641Z,99642.63
2022-08-18T09:20:37.420Z,99638.56
2022-08-18T09:23:18.148Z,99627.75
2022-08-18T09:25:51.920Z,99629.47
2022-08-18T09:28:43.274Z,99626.69
2022-08-18T09:31:10.759Z,99633.97
2022-08-18T09:33:42.389Z,99622.50
2022-08-18T09:36:34.985Z,99627.37
2022-08-18T09:39:38.502Z,99628.25
2022-08-18T09:42:20.110Z,99627.13
2022-08-18T09:45:04.146Z,99624.53
2022-08-18T09:47:31.792Z,99617.31
2022-08-18T09:50:05.201Z,99617.06
2022-08-18T09:52:37.346Z,99606.28
2022-08-18T09:55:18.011Z,99604.28
2022-08-18T09:57:48.202Z,99596.22
2022-08-18T10:00:33.509Z,99579.63
2022-08-18T10:03:01.246Z,99575.09
2022-08-18T10:05:31.762Z,99576.28
2022-08-18T10:08:08.336Z,99571.84
2022-08-18T10:11:20.599Z,99563.75
2022-08-18T10:14:19.572Z,99562.53
2022-08-18T10:17:21.645Z,99565.66
2022-08-18T10:22:52.671Z,99564.22
2022-08-18T10:25:42.696Z,99566.06
2022-08-18T10:28:34.477Z,99564.84
2022-08-18T10:31:09.817Z,99563.69
2022-08-18T10:33:56.427Z,99564.25
2022-08-18T10:36:51.473Z,99568.25
2022-08-18T10:39:44.842Z,99565.75
2022-08-18T10:42:37.746Z,99562.78
2022-08-18T10:45:24.704Z,99557.00
2022-08-18T10:51:15.381Z,99545.97
2022-08-18T10:53:54.855Z,99543.53
2022-08-18T10:56:51.699Z,99546.09
2022-08-18T10:59:47.832Z,99538.00
2022-08-18T11:02:48.859Z,99529.97
2022-08-18T11:05:24.995Z,99527.38
2022-08-18T11:08:00.577Z,99532.81
2022-08-18T11:11:05.602Z,99540.38
2022-08-18T11:13:48.054Z,99536.72
2022-08-18T11:16:28.454Z,99521.03
2022-08-18T11:19:08.505Z,99518.34
2022-08-18T11:21:42.197Z,99524.69
2022-08-18T11:24:16.594Z,99519.56
2022-08-18T11:26:53.087Z,99506.63
2022-08-18T11:29:34.575Z,99512.72
2022-08-18T11:32:05.471Z,99504.16
2022-08-18T11:34:45.734Z,99506.56
2022-08-18T11:37:49.654Z,99494.31
2022-08-18T11:40:51.309Z,99493.38
2022-08-18T11:43:26.486Z,99482.13
2022-08-18T11:46:02.118Z,99481.66
2022-08-18T11:48:37.645Z,99472.97
2022-08-18T11:51:25.349Z,99479.31
2022-08-18T11:53:59.558Z,99456.19
2022-08-18T11:56:38.056Z,99470.28
2022-08-18T11:59:09.208Z,99460.75
2022-08-18T12:01:42.562Z,99465.94
2022-08-18T12:04:16.614Z,99456.50
2022-08-18T12:06:57.816Z,99455.38
2022-08-18T12:12:35.883Z,99447.97
2022-08-18T12:15:23.966Z,99448.31
2022-08-18T12:17:53.628Z,99440.03
2022-08-18T12:20:22.900Z,99440.12
2022-08-18T12:22:57.946Z,99437.87
2022-08-18T12:25:25.947Z,99433.69
2022-08-18T12:27:55.295Z,99429.94
2022-08-18T12:30:23.339Z,99418.03
2022-08-18T12:33:00.882Z,99424.50
2022-08-18T12:35:35.153Z,99415.19
2022-08-18T12:38:11.407Z,99411.91
2022-08-18T12:40:46.917Z,99408.88
2022-08-18T12:43:14.471Z,99415.81
2022-08-18T12:45:44.888Z,99411.91
2022-08-18T12:48:14.559Z,99411.91
2022-08-18T12:50:54.045Z,99413.63
2022-08-18T12:53:29.964Z,99425.91
2022-08-18T12:56:24.845Z,99435.72
2022-08-18T12:58:53.988Z,99433.56
2022-08-18T13:01:23.389Z,99430.50
2022-08-18T13:04:12.455Z,99445.53
2022-08-18T13:07:01.593Z,99440.84
2022-08-18T13:09:52.639Z,99432.13
2022-08-18T13:12:21.697Z,99443.16
2022-08-18T13:14:51.217Z,99446.78
2022-08-18T13:17:30.370Z,99437.53
2022-08-18T13:20:15.044Z,99432.34
2022-08-18T13:22:43.371Z,99443.00
2022-08-18T13:25:32.327Z,99438.97
2022-08-18T13:28:01.987Z,99448.16
2022-08-18T13:30:32.152Z,99442.38
2022-08-18T13:33:33.761Z,99448.44
2022-08-18T13:35:54.521Z,99451.44
2022-08-18T13:38:29.088Z,99444.59
2022-08-18T13:41:00.452Z,99431.34
2022-08-18T13:43:37.245Z,99429.00
2022-08-18T13:46:09.311Z,99435.81
2022-08-18T13:48:41.651Z,99432.41
2022-08-18T13:51:12.013Z,99429.47
2022-08-18T13:53:51.188Z,99433.06
2022-08-18T13:56:31.508Z,99427.47
2022-08-18T13:58:59.431Z,99437.03
2022-08-18T14:01:51.954Z,99434.00
2022-08-18T14:04:20.382Z,99427.91
2022-08-18T14:06:56.417Z,99429.00
2022-08-18T14:09:36.189Z,99431.38
2022-08-18T14:12:15.525Z,99438.31
2022-08-18T14:14:55.629Z,99445.41
2022-08-18T14:17:26.154Z,99436.50
2022-08-18T14:20:21.448Z,99439.09
2022-08-18T14:23:22.830Z,99446.59
2022-08-18T14:26:11.360Z,99443.47
2022-08-18T14:28:41.262Z,99438.94
2022-08-18T14:31:11.688Z,99450.34
2022-08-18T14:33:50.986Z,99453.03
2022-08-18T14:36:29.817Z,99451.38
2022-08-18T14:39:01.083Z,99447.97
2022-08-18T14:41:29.392Z,99439.72
2022-08-18T14:44:12.067Z,99441.75
2022-08-18T14:46:42.104Z,99446.03
2022-08-18T14:49:28.132Z,99445.53
2022-08-18T14:51:57.271Z,99438.72
2022-08-18T14:54:28.414Z,99441.16
2022-08-18T14:56:58.643Z,99437.03
2022-08-18T14:59:34.614Z,99437.87
2022-08-18T15:02:13.348Z,99436.91
2022-08-18T15:04:53.218Z,99436.91
2022-08-18T15:07:28.905Z,99435.06
2022-08-18T15:10:14.924Z,99423.78
2022-08-18T15:12:47.272Z,99427.63
2022-08-18T15:15:17.839Z,99423.66
2022-08-18T15:17:50.143Z,99423.28
2022-08-18T15:20:29.121Z,99422.94
2022-08-18T15:23:28.063Z,99424.59
2022-08-18T15:25:56.712Z,99422.19
2022-08-18T15:28:27.991Z,99420.19
2022-08-18T15:33:51.093Z,99425.12
2022-08-18T15:36:29.122Z,99425.97
2022-08-18T15:38:57.086Z,99420.84
2022-08-18T15:41:35.099Z,99427.47
2022-08-18T15:44:11.705Z,99433.91
2022-08-18T15:46:39.798Z,99437.19
2022-08-18T15:49:14.919Z,99429.91
2022-08-18T15:51:43.008Z,99435.19
2022-08-18T15:54:13.420Z,99431.94
2022-08-18T15:56:44.722Z,99425.19
2022-08-18T15:59:39.913Z,99412.38
2022-08-18T16:02:11.374Z,99412.69
2022-08-18T16:04:41.301Z,99411.59
2022-08-18T16:07:10.870Z,99408.47
2022-08-18T16:09:38.626Z,99405.31
2022-08-18T16:12:09.625Z,99412.97
2022-08-18T16:14:41.459Z,99412.59
2022-08-18T16:17:17.726Z,99414.25
2022-08-18T16:19:51.200Z,99403.09
2022-08-18T16:22:18.891Z,99405.59
2022-08-18T16:24:54.801Z,99410.50
2022-08-18T16:27:22.962Z,99412.19
2022-08-18T16:29:52.666Z,99408.25
2022-08-18T16:32:20.237Z,99402.72
2022-08-18T16:34:47.769Z,99407.56
2022-08-18T16:37:17.928Z,99408.38
2022-08-18T16:39:45.744Z,99409.97
2022-08-18T16:42:13.513Z,99415.63
2022-08-18T16:44:41.073Z,99405.25
2022-08-18T16:47:08.687Z,99406.25
2022-08-18T16:49:36.254Z,99406.47
2022-08-18T16:52:03.959Z,99399.41
2022-08-18T16:54:32.497Z,99397.50
2022-08-18T16:57:03.845Z,99392.53
2022-08-18T16:59:48.795Z,99382.28
2022-08-18T17:02:30.611Z,99396.09
2022-08-18T17:05:02.527Z,99389.06
2022-08-18T17:07:34.954Z,99380.38
2022-08-18T17:10:07.217Z,99372.50
2022-08-18T17:12:39.390Z,99376.63
2022-08-18T17:15:10.066Z,99368.25
2022-08-18T17:17:37.900Z,99367.91
2022-08-18T17:20:11.106Z,99373.56
2022-08-18T17:22:39.034Z,99369.53
2022-08-18T17:25:09.522Z,99367.16
2022-08-18T17:27:39.063Z,99364.34
2022-08-18T17:30:17.245Z,99369.53
2022-08-18T17:32:51.587Z,99359.50
2022-08-18T17:35:42.526Z,99343.91
2022-08-18T17:38:15.142Z,99339.84
2022-08-18T17:40:51.782Z,99327.81
2022-08-18T17:43:30.383Z,99312.56
2022-08-18T17:46:06.893Z,99320.09
2022-08-18T17:49:11.754Z,99319.69
2022-08-18T17:51:43.465Z,99328.72
2022-08-18T17:54:25.636Z,99332.19
2022-08-18T17:57:01.506Z,99343.69
2022-08-18T17:59:55.632Z,99353.13
2022-08-18T18:02:30.681Z,99354.25
2022-08-18T18:05:03.561Z,99356.59
2022-08-18T18:07:38.448Z,99359.38
2022-08-18T18:10:15.185Z,99360.50
2022-08-18T18:12:45.883Z,99362.84
2022-08-18T18:15:17.707Z,99362.81
2022-08-18T18:17:46.273Z,99376.34
2022-08-18T18:20:34.486Z,99366.72
2022-08-18T18:23:26.730Z,99370.22
2022-08-18T18:26:00.485Z,99377.75
2022-08-18T18:28:36.304Z,99368.91
2022-08-18T18:31:29.217Z,99383.25
2022-08-18T18:34:01.439Z,99391.97
2022-08-18T18:36:56.335Z,99389.91
2022-08-18T18:39:34.164Z,99391.00
2022-08-18T18:42:36.063Z,99398.91
2022-08-18T18:45:11.727Z,99396.84
2022-08-18T18:47:42.671Z,99401.16
2022-08-18T18:50:18.487Z,99394.00
2022-08-18T18:52:58.180Z,99387.19
2022-08-18T18:55:29.178Z,99394.31
2022-08-18T18:58:28.994Z,99396.63
2022-08-18T19:01:06.145Z,99399.34
2022-08-18T19:03:36.771Z,99398.03
2022-08-18T19:06:21.335Z,99401.41
2022-08-18T19:08:57.921Z,99397.31
2022-08-18T19:12:03.408Z,99402.84
2022-08-18T19:14:36.543Z,99399.50
2022-08-18T19:17:42.085Z,99403.00
2022-08-18T19:20:15.043Z,99401.00
2022-08-18T19:22:59.073Z,99399.78
2022-08-18T19:25:36.933Z,99394.59
2022-08-18T19:28:10.687Z,99397.31
2022-08-18T19:30:41.120Z,99394.09
2022-08-18T19:33:15.697Z,99402.09
2022-08-18T19:36:09.774Z,99398.87
2022-08-18T19:39:27.666Z,99403.25
2022-08-18T19:42:20.854Z,99395.28
2022-08-18T19:45:20.812Z,99392.56
2022-08-18T19:48:03.242Z,99399.31
2022-08-18T19:50:45.790Z,99400.47
2022-08-18T19:53:39.184Z,99406.06
2022-08-18T19:56:21.657Z,99407.72
2022-08-18T19:59:15.710Z,99407.31
2022-08-18T20:01:55.296Z,99404.13
2022-08-18T20:04:22.859Z,99407.28
2022-08-18T20:07:12.142Z,99406.06
2022-08-18T20:10:00.675Z,99404.00
2022-08-18T20:12:35.049Z,99415.06
2022-08-18T20:15:27.573Z,99414.63
2022-08-18T20:17:55.057Z,99410.19
2022-08-18T20:20:25.489Z,99413.72
2022-08-18T20:22:57.339Z,99406.87
2022-08-18T20:25:24.933Z,99409.16
2022-08-18T20:27:54.017Z,99410.31
2022-08-18T20:30:23.578Z,99398.09
2022-08-18T20:33:16.533Z,99395.81
2022-08-18T20:36:36.437Z,99400.72
2022-08-18T20:39:45.545Z,99400.25
2022-08-18T20:42:22.056Z,99396.22
2022-08-18T20:44:49.551Z,99400.09
2022-08-18T20:47:41.865Z,99403.59
2022-08-18T20:50:33.912Z,99409.53
2022-08-18T20:53:49.141Z,99415.38
2022-08-18T20:56:43.623Z,99414.63
2022-08-18T20:59:19.944Z,99413.47
2022-08-18T21:01:59.588Z,99426.12
2022-08-18T21:04:52.029Z,99425.22
2022-08-18T21:07:36.331Z,99434.75
2022-08-18T21:10:14.650Z,99450.13
2022-08-18T21:12:52.310Z,99460.34
2022-08-18T21:15:26.794Z,99469.56
2022-08-18T21:18:01.789Z,99462.69
2022-08-18T21:20:31.388Z,99468.97
2022-08-18T21:23:14.736Z,99462.09
2022-08-18T21:25:52.587Z,99471.56
2022-08-18T21:28:22.154Z,99471.19
2022-08-18T21:31:41.890Z,99470.66
2022-08-18T21:33:57.654Z,99481.84
2022-08-18T21:36:32.393Z,99491.31
2022-08-18T21:39:06.522Z,99483.69
2022-08-18T21:41:40.270Z,99484.84
2022-08-18T21:44:16.708Z,99497.59
2022-08-18T21:46:46.059Z,99493.50
2022-08-18T21:49:14.368Z,99504.94
2022-08-18T21:51:50.271Z,99498.19
2022-08-18T21:54:31.373Z,99502.81
2022-08-18T21:57:24.553Z,99505.72
2022-08-18T22:00:20.305Z,99507.41
2022-08-18T22:02:52.064Z,99509.62
2022-08-18T22:05:58.154Z,99516.56
2022-08-18T22:08:22.644Z,99514.06
2022-08-18T22:11:59.995Z,99524.25
2022-08-18T22:14:35.852Z,99526.50
2022-08-18T22:17:52.984Z,99529.50
2022-08-18T22:20:49.381Z,99538.84
2022-08-18T22:23:34.561Z,99532.78
2022-08-18T22:26:26.790Z,99537.00
2022-08-18T22:28:57.176Z,99542.47
2022-08-18T22:31:27.134Z,99543.94
2022-08-18T22:33:55.603Z,99548.16
2022-08-18T22:36:28.354Z,99553.28
2022-08-18T22:38:56.260Z,99551.59
2022-08-18T22:41:25.807Z,99548.25
2022-08-18T22:43:55.282Z,99550.16
2022-08-18T22:46:26.691Z,99554.81
2022-08-18T22:48:54.290Z,99556.72
2022-08-18T22:51:24.634Z,99554.66
2022-08-18T22:53:56.761Z,99550.19
2022-08-18T22:56:33.948Z,99547.72
2022-08-18T22:59:15.960Z,99551.00
2022-08-18T23:01:50.338Z,99546.09
2022-08-18T23:04:20.545Z,99549.16
2022-08-18T23:06:51.944Z,99551.84
2022-08-18T23:09:25.958Z,99545.50
2022-08-18T23:11:57.374Z,99552.56
2022-08-18T23:14:25.185Z,99544.88
2022-08-18T23:16:53.224Z,99546.66
2022-08-18T23:19:22.749Z,99538.16
2022-08-18T23:21:51.724Z,99533.22
2022-08-18T23:24:21.685Z,99523.13
2022-08-18T23:26:49.299Z,99526.13
2022-08-18T23:29:17.151Z,99523.25
2022-08-18T23:31:45.943Z,99522.38
2022-08-18T23:34:15.403Z,99520.66
2022-08-18T23:36:45.849Z,99508.31
2022-08-18T23:39:14.738Z,99512.56
2022-08-18T23:41:42.790Z,99531.56
2022-08-18T23:44:11.355Z,99507.28
2022-08-18T23:46:42.026Z,99506.59
2022-08-18T23:49:10.949Z,99510.06
2022-08-18T23:51:44.231Z,99507.66
2022-08-18T23:54:21.926Z,99507.53
2022-08-18T23:56:50.615Z,99508.16
2022-08-18T23:59:19.716Z,99515.41
